Atlanta, Idaho
Current Conditions -  °F | °C
As of 11:47 AM on Monday 20 Oct 2014 (Local Time) from KSUN Reporting Station
Broken Clouds Broken Clouds  
Wind Chill: 59°   Ceiling: 10000
Heat Index: 59°   Visibility: 10mi
Dew Point: 34°   Wind: 7mph
Humidity: 39%   Direction: 300°WNW
Pressure: 30.05"   Gusts: NA
Location:  43.8°N, 115.13°W
Report Text: KSUN 201747Z 30006KT 10SM BKN100 15/01 A3005
Loading
Personal Weather Stations






























Interactive Weather Map New forecast layout! Learn more

10-Day Weather Forecast

Advertisements
Track Severe Weather on mobile